sensor_id;sensor_type;location;lat;lon;timestamp;pressure;altitude;pressure_sealevel;temperature;humidity
3096;BME280;1558;42.700;23.360;2022-12-19T00:00:28;97082.50;;;0.62;100.00
3096;BME280;1558;42.700;23.360;2022-12-19T00:02:56;97044.22;;;0.40;100.00
3096;BME280;1558;42.700;23.360;2022-12-19T00:05:24;97063.00;;;0.56;100.00
3096;BME280;1558;42.700;23.360;2022-12-19T00:07:52;97065.06;;;0.54;100.00
3096;BME280;1558;42.700;23.360;2022-12-19T00:10:20;97086.53;;;0.64;100.00
3096;BME280;1558;42.700;23.360;2022-12-19T00:12:49;97071.88;;;0.62;100.00
3096;BME280;1558;42.700;23.360;2022-12-19T00:15:17;97084.94;;;0.63;100.00
3096;BME280;1558;42.700;23.360;2022-12-19T00:17:45;97079.25;;;0.60;100.00
3096;BME280;1558;42.700;23.360;2022-12-19T00:20:13;97034.88;;;0.37;100.00
3096;BME280;1558;42.700;23.360;2022-12-19T00:22:44;97088.66;;;0.74;100.00
3096;BME280;1558;42.700;23.360;2022-12-19T00:25:12;97082.66;;;0.79;100.00
3096;BME280;1558;42.700;23.360;2022-12-19T00:27:39;97090.19;;;0.82;100.00
3096;BME280;1558;42.700;23.360;2022-12-19T00:30:10;97090.63;;;0.79;100.00
3096;BME280;1558;42.700;23.360;2022-12-19T00:32:39;97086.81;;;0.75;100.00
3096;BME280;1558;42.700;23.360;2022-12-19T00:35:07;97086.34;;;0.66;100.00
3096;BME280;1558;42.700;23.360;2022-12-19T00:37:35;97089.19;;;0.64;100.00
3096;BME280;1558;42.700;23.360;2022-12-19T00:40:09;97099.25;;;0.62;100.00
3096;BME280;1558;42.700;23.360;2022-12-19T00:42:37;97082.25;;;0.52;100.00
3096;BME280;1558;42.700;23.360;2022-12-19T00:45:05;97095.78;;;0.62;100.00
3096;BME280;1558;42.700;23.360;2022-12-19T00:47:35;97105.59;;;0.61;100.00
3096;BME280;1558;42.700;23.360;2022-12-19T00:50:03;97101.44;;;0.65;100.00
3096;BME280;1558;42.700;23.360;2022-12-19T00:52:31;97089.38;;;0.51;100.00
3096;BME280;1558;42.700;23.360;2022-12-19T00:54:59;97106.31;;;0.68;100.00
3096;BME280;1558;42.700;23.360;2022-12-19T00:57:30;97051.47;;;0.33;100.00
3096;BME280;1558;42.700;23.360;2022-12-19T00:59:58;97101.22;;;0.67;100.00
3096;BME280;1558;42.700;23.360;2022-12-19T01:02:26;97050.66;;;0.32;100.00
3096;BME280;1558;42.700;23.360;2022-12-19T01:04:55;97089.53;;;0.56;100.00
3096;BME280;1558;42.700;23.360;2022-12-19T01:07:23;97056.38;;;0.29;100.00
3096;BME280;1558;42.700;23.360;2022-12-19T01:09:51;97045.47;;;0.19;100.00
3096;BME280;1558;42.700;23.360;2022-12-19T01:12:19;97107.78;;;0.64;100.00
3096;BME280;1558;42.700;23.360;2022-12-19T01:15:05;97097.34;;;0.51;100.00
3096;BME280;1558;42.700;23.360;2022-12-19T01:17:33;97093.19;;;0.55;100.00
3096;BME280;1558;42.700;23.360;2022-12-19T01:20:13;97109.13;;;0.55;100.00
3096;BME280;1558;42.700;23.360;2022-12-19T01:22:42;97111.19;;;0.53;100.00
3096;BME280;1558;42.700;23.360;2022-12-19T01:25:11;97121.38;;;0.56;100.00
3096;BME280;1558;42.700;23.360;2022-12-19T01:27:39;97042.09;;;0.12;100.00
3096;BME280;1558;42.700;23.360;2022-12-19T01:30:08;97122.06;;;0.52;100.00
3096;BME280;1558;42.700;23.360;2022-12-19T01:32:37;97121.81;;;0.53;100.00
3096;BME280;1558;42.700;23.360;2022-12-19T01:35:06;97111.63;;;0.50;100.00
3096;BME280;1558;42.700;23.360;2022-12-19T01:37:48;97114.81;;;0.59;100.00
3096;BME280;1558;42.700;23.360;2022-12-19T01:40:17;97087.94;;;0.37;100.00
3096;BME280;1558;42.700;23.360;2022-12-19T01:42:45;97106.72;;;0.54;100.00
3096;BME280;1558;42.700;23.360;2022-12-19T01:45:25;97117.09;;;0.55;100.00
3096;BME280;1558;42.700;23.360;2022-12-19T01:48:05;97110.47;;;0.46;100.00
3096;BME280;1558;42.700;23.360;2022-12-19T01:50:37;97106.41;;;0.44;100.00
3096;BME280;1558;42.700;23.360;2022-12-19T01:53:14;97106.06;;;0.40;100.00
3096;BME280;1558;42.700;23.360;2022-12-19T01:55:43;97110.03;;;0.49;100.00
3096;BME280;1558;42.700;23.360;2022-12-19T01:58:12;97106.56;;;0.49;100.00
3096;BME280;1558;42.700;23.360;2022-12-19T02:00:41;97062.06;;;0.15;100.00
3096;BME280;1558;42.700;23.360;2022-12-19T02:03:15;97105.16;;;0.46;100.00
3096;BME280;1558;42.700;23.360;2022-12-19T02:05:45;97098.38;;;0.50;100.00
3096;BME280;1558;42.700;23.360;2022-12-19T02:08:15;97044.75;;;0.12;100.00
3096;BME280;1558;42.700;23.360;2022-12-19T02:10:43;97107.16;;;0.51;100.00
3096;BME280;1558;42.700;23.360;2022-12-19T02:13:11;97109.56;;;0.52;100.00
3096;BME280;1558;42.700;23.360;2022-12-19T02:15:46;97109.22;;;0.49;100.00
3096;BME280;1558;42.700;23.360;2022-12-19T02:18:22;97050.22;;;0.17;100.00
3096;BME280;1558;42.700;23.360;2022-12-19T02:21:24;97104.72;;;0.49;100.00
3096;BME280;1558;42.700;23.360;2022-12-19T02:24:26;97109.28;;;0.60;100.00
3096;BME280;1558;42.700;23.360;2022-12-19T02:27:23;97114.00;;;0.58;100.00
3096;BME280;1558;42.700;23.360;2022-12-19T02:30:07;97021.06;;;-0.01;100.00
3096;BME280;1558;42.700;23.360;2022-12-19T02:32:47;97125.63;;;0.57;100.00
3096;BME280;1558;42.700;23.360;2022-12-19T02:35:24;97117.31;;;0.54;100.00
3096;BME280;1558;42.700;23.360;2022-12-19T02:37:58;97103.25;;;0.53;100.00
3096;BME280;1558;42.700;23.360;2022-12-19T02:40:39;97119.31;;;0.58;100.00
3096;BME280;1558;42.700;23.360;2022-12-19T02:43:10;97098.69;;;0.42;100.00
3096;BME280;1558;42.700;23.360;2022-12-19T02:45:41;97102.13;;;0.43;100.00
3096;BME280;1558;42.700;23.360;2022-12-19T02:48:11;97121.47;;;0.50;100.00
3096;BME280;1558;42.700;23.360;2022-12-19T02:50:45;97095.47;;;0.40;100.00
3096;BME280;1558;42.700;23.360;2022-12-19T02:53:16;97112.97;;;0.41;100.00
3096;BME280;1558;42.700;23.360;2022-12-19T02:56:01;97102.38;;;0.41;100.00
3096;BME280;1558;42.700;23.360;2022-12-19T02:58:50;97107.59;;;0.48;100.00
3096;BME280;1558;42.700;23.360;2022-12-19T03:01:35;97064.06;;;0.19;100.00
3096;BME280;1558;42.700;23.360;2022-12-19T03:04:15;97107.88;;;0.58;100.00
3096;BME280;1558;42.700;23.360;2022-12-19T03:06:47;97012.19;;;0.05;100.00
3096;BME280;1558;42.700;23.360;2022-12-19T03:09:25;97095.13;;;0.66;100.00
3096;BME280;1558;42.700;23.360;2022-12-19T03:12:01;97087.47;;;0.58;100.00
3096;BME280;1558;42.700;23.360;2022-12-19T03:14:30;97107.78;;;0.64;100.00
3096;BME280;1558;42.700;23.360;2022-12-19T03:17:02;97102.13;;;0.61;100.00
3096;BME280;1558;42.700;23.360;2022-12-19T03:19:33;97101.03;;;0.50;100.00
3096;BME280;1558;42.700;23.360;2022-12-19T03:22:01;97081.22;;;0.35;100.00
3096;BME280;1558;42.700;23.360;2022-12-19T03:24:29;97104.44;;;0.39;100.00
3096;BME280;1558;42.700;23.360;2022-12-19T03:27:00;97089.56;;;0.20;100.00
3096;BME280;1558;42.700;23.360;2022-12-19T03:29:31;97024.00;;;-0.09;100.00
3096;BME280;1558;42.700;23.360;2022-12-19T03:32:03;97115.19;;;0.44;100.00
3096;BME280;1558;42.700;23.360;2022-12-19T03:34:35;97117.41;;;0.47;100.00
3096;BME280;1558;42.700;23.360;2022-12-19T03:37:08;97100.16;;;0.38;100.00
3096;BME280;1558;42.700;23.360;2022-12-19T03:39:40;97120.13;;;0.41;100.00
3096;BME280;1558;42.700;23.360;2022-12-19T03:42:09;97126.47;;;0.40;100.00
3096;BME280;1558;42.700;23.360;2022-12-19T03:44:56;97114.63;;;0.42;100.00
3096;BME280;1558;42.700;23.360;2022-12-19T03:47:30;97123.00;;;0.39;100.00
3096;BME280;1558;42.700;23.360;2022-12-19T03:50:01;97121.25;;;0.33;100.00
3096;BME280;1558;42.700;23.360;2022-12-19T03:52:34;97140.94;;;0.26;100.00
3096;BME280;1558;42.700;23.360;2022-12-19T03:55:10;97143.19;;;0.22;100.00
3096;BME280;1558;42.700;23.360;2022-12-19T03:57:42;97145.50;;;0.19;100.00
3096;BME280;1558;42.700;23.360;2022-12-19T04:00:13;97136.19;;;0.10;100.00
3096;BME280;1558;42.700;23.360;2022-12-19T04:02:45;97137.75;;;0.17;100.00
3096;BME280;1558;42.700;23.360;2022-12-19T04:05:18;97126.47;;;0.04;100.00
3096;BME280;1558;42.700;23.360;2022-12-19T04:07:48;97158.28;;;0.04;100.00
3096;BME280;1558;42.700;23.360;2022-12-19T04:10:20;97154.66;;;-0.02;100.00
3096;BME280;1558;42.700;23.360;2022-12-19T04:12:52;97168.38;;;-0.05;100.00
3096;BME280;1558;42.700;23.360;2022-12-19T04:15:32;97162.63;;;-0.02;100.00
3096;BME280;1558;42.700;23.360;2022-12-19T04:18:04;97171.22;;;-0.07;100.00
3096;BME280;1558;42.700;23.360;2022-12-19T04:20:36;97101.59;;;-0.38;100.00
3096;BME280;1558;42.700;23.360;2022-12-19T04:23:10;97140.88;;;-0.29;100.00
3096;BME280;1558;42.700;23.360;2022-12-19T04:25:44;97183.66;;;-0.07;100.00
3096;BME280;1558;42.700;23.360;2022-12-19T04:28:17;97171.13;;;-0.18;100.00
3096;BME280;1558;42.700;23.360;2022-12-19T04:30:47;97161.44;;;-0.31;100.00
3096;BME280;1558;42.700;23.360;2022-12-19T04:33:16;97142.69;;;-0.29;100.00
3096;BME280;1558;42.700;23.360;2022-12-19T04:35:45;97159.69;;;-0.12;100.00
3096;BME280;1558;42.700;23.360;2022-12-19T04:38:13;97159.94;;;-0.20;100.00
3096;BME280;1558;42.700;23.360;2022-12-19T04:40:41;97160.91;;;-0.15;100.00
3096;BME280;1558;42.700;23.360;2022-12-19T04:43:09;97169.41;;;-0.06;100.00
3096;BME280;1558;42.700;23.360;2022-12-19T04:45:39;97168.88;;;-0.15;100.00
3096;BME280;1558;42.700;23.360;2022-12-19T04:48:08;97146.47;;;-0.19;100.00
3096;BME280;1558;42.700;23.360;2022-12-19T04:50:35;97166.09;;;-0.02;100.00
3096;BME280;1558;42.700;23.360;2022-12-19T04:53:05;97181.19;;;-0.02;100.00
3096;BME280;1558;42.700;23.360;2022-12-19T04:55:33;97152.34;;;-0.17;100.00
3096;BME280;1558;42.700;23.360;2022-12-19T04:58:03;97189.59;;;-0.05;100.00
3096;BME280;1558;42.700;23.360;2022-12-19T05:00:31;97185.91;;;-0.04;100.00
3096;BME280;1558;42.700;23.360;2022-12-19T05:02:59;97182.81;;;-0.01;100.00
3096;BME280;1558;42.700;23.360;2022-12-19T05:05:28;97184.13;;;-0.10;100.00
3096;BME280;1558;42.700;23.360;2022-12-19T05:07:58;97181.69;;;-0.12;100.00
3096;BME280;1558;42.700;23.360;2022-12-19T05:10:28;97185.31;;;-0.06;100.00
3096;BME280;1558;42.700;23.360;2022-12-19T05:12:55;97184.88;;;-0.03;100.00
3096;BME280;1558;42.700;23.360;2022-12-19T05:15:23;97183.25;;;-0.04;100.00
3096;BME280;1558;42.700;23.360;2022-12-19T05:17:51;97115.94;;;-0.46;100.00
3096;BME280;1558;42.700;23.360;2022-12-19T05:20:19;97171.88;;;-0.11;100.00
3096;BME280;1558;42.700;23.360;2022-12-19T05:22:47;97194.59;;;0.03;100.00
3096;BME280;1558;42.700;23.360;2022-12-19T05:25:15;97147.56;;;-0.26;100.00
3096;BME280;1558;42.700;23.360;2022-12-19T05:27:45;97115.94;;;-0.46;100.00
3096;BME280;1558;42.700;23.360;2022-12-19T05:30:12;97187.69;;;0.02;100.00
3096;BME280;1558;42.700;23.360;2022-12-19T05:32:40;97192.44;;;-0.07;100.00
3096;BME280;1558;42.700;23.360;2022-12-19T05:35:08;97186.38;;;-0.14;100.00
3096;BME280;1558;42.700;23.360;2022-12-19T05:37:36;97189.28;;;-0.15;100.00
3096;BME280;1558;42.700;23.360;2022-12-19T05:40:05;97196.78;;;-0.12;100.00
3096;BME280;1558;42.700;23.360;2022-12-19T05:42:33;97193.91;;;-0.11;100.00
3096;BME280;1558;42.700;23.360;2022-12-19T05:45:03;97190.88;;;-0.14;100.00
3096;BME280;1558;42.700;23.360;2022-12-19T05:47:31;97196.34;;;-0.09;100.00
3096;BME280;1558;42.700;23.360;2022-12-19T05:49:59;97158.81;;;-0.31;100.00
3096;BME280;1558;42.700;23.360;2022-12-19T05:52:29;97198.97;;;-0.03;100.00
3096;BME280;1558;42.700;23.360;2022-12-19T05:54:57;97182.38;;;0.02;100.00
3096;BME280;1558;42.700;23.360;2022-12-19T05:57:25;97203.53;;;0.09;100.00
3096;BME280;1558;42.700;23.360;2022-12-19T05:59:53;97211.59;;;0.20;100.00
3096;BME280;1558;42.700;23.360;2022-12-19T06:02:23;97199.72;;;0.23;100.00
3096;BME280;1558;42.700;23.360;2022-12-19T06:04:51;97181.75;;;0.25;100.00
3096;BME280;1558;42.700;23.360;2022-12-19T06:07:19;97201.13;;;0.43;100.00
3096;BME280;1558;42.700;23.360;2022-12-19T06:09:47;97210.34;;;0.41;100.00
3096;BME280;1558;42.700;23.360;2022-12-19T06:12:15;97200.84;;;0.33;100.00
3096;BME280;1558;42.700;23.360;2022-12-19T06:14:42;97201.22;;;0.37;100.00
3096;BME280;1558;42.700;23.360;2022-12-19T06:17:10;97202.03;;;0.37;100.00
3096;BME280;1558;42.700;23.360;2022-12-19T06:19:40;97215.13;;;0.32;100.00
3096;BME280;1558;42.700;23.360;2022-12-19T06:22:07;97208.34;;;0.36;100.00
3096;BME280;1558;42.700;23.360;2022-12-19T06:24:38;97216.19;;;0.49;100.00
3096;BME280;1558;42.700;23.360;2022-12-19T06:27:06;97223.66;;;0.59;100.00
3096;BME280;1558;42.700;23.360;2022-12-19T06:29:34;97196.28;;;0.40;100.00
3096;BME280;1558;42.700;23.360;2022-12-19T06:32:02;97219.00;;;0.54;100.00
3096;BME280;1558;42.700;23.360;2022-12-19T06:34:30;97213.81;;;0.59;100.00
3096;BME280;1558;42.700;23.360;2022-12-19T06:37:19;97216.34;;;0.73;100.00
3096;BME280;1558;42.700;23.360;2022-12-19T06:39:49;97226.22;;;0.84;100.00
3096;BME280;1558;42.700;23.360;2022-12-19T06:42:16;97220.47;;;0.87;100.00
3096;BME280;1558;42.700;23.360;2022-12-19T06:44:51;97217.81;;;0.87;100.00
3096;BME280;1558;42.700;23.360;2022-12-19T06:47:22;97228.28;;;1.00;100.00
3096;BME280;1558;42.700;23.360;2022-12-19T06:49:50;97210.75;;;0.81;100.00
3096;BME280;1558;42.700;23.360;2022-12-19T06:52:19;97231.09;;;0.87;100.00
3096;BME280;1558;42.700;23.360;2022-12-19T06:54:47;97231.66;;;0.89;100.00
3096;BME280;1558;42.700;23.360;2022-12-19T06:57:16;97222.53;;;0.85;100.00
3096;BME280;1558;42.700;23.360;2022-12-19T06:59:44;97248.81;;;0.93;100.00
3096;BME280;1558;42.700;23.360;2022-12-19T07:02:20;97247.22;;;1.03;100.00
3096;BME280;1558;42.700;23.360;2022-12-19T07:04:54;97204.81;;;0.79;100.00
3096;BME280;1558;42.700;23.360;2022-12-19T07:07:25;97205.50;;;0.92;100.00
3096;BME280;1558;42.700;23.360;2022-12-19T07:09:54;97251.13;;;1.01;100.00
3096;BME280;1558;42.700;23.360;2022-12-19T07:12:21;97257.78;;;0.92;100.00
3096;BME280;1558;42.700;23.360;2022-12-19T07:14:49;97260.59;;;0.97;100.00
3096;BME280;1558;42.700;23.360;2022-12-19T07:17:20;97257.19;;;0.90;100.00
3096;BME280;1558;42.700;23.360;2022-12-19T07:19:52;97254.84;;;0.82;100.00
3096;BME280;1558;42.700;23.360;2022-12-19T07:22:21;97260.00;;;0.95;100.00
3096;BME280;1558;42.700;23.360;2022-12-19T07:24:53;97258.00;;;1.08;100.00
3096;BME280;1558;42.700;23.360;2022-12-19T07:27:21;97263.97;;;1.04;100.00
3096;BME280;1558;42.700;23.360;2022-12-19T07:29:50;97262.19;;;0.98;100.00
3096;BME280;1558;42.700;23.360;2022-12-19T07:32:18;97232.91;;;0.86;100.00
3096;BME280;1558;42.700;23.360;2022-12-19T07:34:46;97233.38;;;0.83;100.00
3096;BME280;1558;42.700;23.360;2022-12-19T07:37:15;97239.06;;;0.87;100.00
3096;BME280;1558;42.700;23.360;2022-12-19T07:39:45;97273.13;;;1.08;100.00
3096;BME280;1558;42.700;23.360;2022-12-19T07:42:15;97206.97;;;0.52;100.00
3096;BME280;1558;42.700;23.360;2022-12-19T07:44:43;97290.53;;;0.86;100.00
3096;BME280;1558;42.700;23.360;2022-12-19T07:47:11;97268.38;;;0.55;100.00
3096;BME280;1558;42.700;23.360;2022-12-19T07:49:40;97302.88;;;0.80;100.00
3096;BME280;1558;42.700;23.360;2022-12-19T07:52:08;97303.69;;;0.81;100.00
3096;BME280;1558;42.700;23.360;2022-12-19T07:54:35;97306.34;;;0.81;100.00
3096;BME280;1558;42.700;23.360;2022-12-19T07:57:03;97315.03;;;0.88;100.00
3096;BME280;1558;42.700;23.360;2022-12-19T07:59:33;97238.28;;;0.43;100.00
3096;BME280;1558;42.700;23.360;2022-12-19T08:02:05;97318.59;;;1.00;100.00
3096;BME280;1558;42.700;23.360;2022-12-19T08:04:33;97236.28;;;0.39;100.00
3096;BME280;1558;42.700;23.360;2022-12-19T08:07:01;97321.44;;;0.98;100.00
3096;BME280;1558;42.700;23.360;2022-12-19T08:09:29;97317.69;;;1.06;100.00
3096;BME280;1558;42.700;23.360;2022-12-19T08:11:58;97323.31;;;1.16;100.00
3096;BME280;1558;42.700;23.360;2022-12-19T08:14:26;97315.44;;;1.09;100.00
3096;BME280;1558;42.700;23.360;2022-12-19T08:16:55;97323.97;;;1.11;100.00
3096;BME280;1558;42.700;23.360;2022-12-19T08:19:44;97339.69;;;1.13;100.00
3096;BME280;1558;42.700;23.360;2022-12-19T08:22:13;97319.34;;;1.07;100.00
3096;BME280;1558;42.700;23.360;2022-12-19T08:24:42;97265.31;;;0.77;100.00
3096;BME280;1558;42.700;23.360;2022-12-19T08:27:10;97282.50;;;0.92;100.00
3096;BME280;1558;42.700;23.360;2022-12-19T08:29:38;97328.16;;;1.19;100.00
3096;BME280;1558;42.700;23.360;2022-12-19T08:32:07;97289.22;;;0.95;100.00
3096;BME280;1558;42.700;23.360;2022-12-19T08:34:35;97324.66;;;1.07;100.00
3096;BME280;1558;42.700;23.360;2022-12-19T08:37:03;97327.16;;;1.02;100.00
3096;BME280;1558;42.700;23.360;2022-12-19T08:39:31;97325.00;;;1.10;100.00
3096;BME280;1558;42.700;23.360;2022-12-19T08:41:59;97323.06;;;1.17;100.00
3096;BME280;1558;42.700;23.360;2022-12-19T08:44:27;97322.09;;;1.12;100.00
3096;BME280;1558;42.700;23.360;2022-12-19T08:46:55;97327.81;;;1.15;100.00
3096;BME280;1558;42.700;23.360;2022-12-19T08:49:24;97285.16;;;0.92;100.00
3096;BME280;1558;42.700;23.360;2022-12-19T08:51:52;97312.63;;;1.04;100.00
3096;BME280;1558;42.700;23.360;2022-12-19T08:54:20;97304.63;;;1.22;100.00
3096;BME280;1558;42.700;23.360;2022-12-19T08:56:48;97305.44;;;1.23;100.00
3096;BME280;1558;42.700;23.360;2022-12-19T08:59:16;97300.41;;;1.33;100.00
3096;BME280;1558;42.700;23.360;2022-12-19T09:01:56;97219.44;;;0.88;100.00
3096;BME280;1558;42.700;23.360;2022-12-19T09:04:26;97310.28;;;1.44;100.00
3096;BME280;1558;42.700;23.360;2022-12-19T09:07:14;97273.69;;;1.28;100.00
3096;BME280;1558;42.700;23.360;2022-12-19T09:09:42;97295.59;;;1.42;100.00
3096;BME280;1558;42.700;23.360;2022-12-19T09:12:11;97244.72;;;1.08;100.00
3096;BME280;1558;42.700;23.360;2022-12-19T09:14:39;97292.34;;;1.40;100.00
3096;BME280;1558;42.700;23.360;2022-12-19T09:17:07;97268.06;;;1.36;100.00
3096;BME280;1558;42.700;23.360;2022-12-19T09:19:37;97280.28;;;1.55;100.00
3096;BME280;1558;42.700;23.360;2022-12-19T09:22:08;97276.56;;;1.45;100.00
3096;BME280;1558;42.700;23.360;2022-12-19T09:24:36;97273.50;;;1.59;100.00
3096;BME280;1558;42.700;23.360;2022-12-19T09:27:04;97266.31;;;1.60;100.00
3096;BME280;1558;42.700;23.360;2022-12-19T09:29:32;97264.81;;;1.52;100.00
3096;BME280;1558;42.700;23.360;2022-12-19T09:32:01;97260.91;;;1.66;100.00
3096;BME280;1558;42.700;23.360;2022-12-19T09:34:29;97260.81;;;1.73;100.00
3096;BME280;1558;42.700;23.360;2022-12-19T09:37:06;97255.28;;;1.86;100.00
3096;BME280;1558;42.700;23.360;2022-12-19T09:39:40;97247.09;;;1.87;100.00
3096;BME280;1558;42.700;23.360;2022-12-19T09:42:23;97194.66;;;1.65;100.00
3096;BME280;1558;42.700;23.360;2022-12-19T09:45:14;97240.41;;;1.96;100.00
3096;BME280;1558;42.700;23.360;2022-12-19T09:47:59;97249.41;;;2.07;100.00
3096;BME280;1558;42.700;23.360;2022-12-19T09:50:34;97233.00;;;2.22;100.00
3096;BME280;1558;42.700;23.360;2022-12-19T09:53:16;97235.78;;;2.27;100.00
3096;BME280;1558;42.700;23.360;2022-12-19T09:55:46;97204.78;;;2.09;100.00
3096;BME280;1558;42.700;23.360;2022-12-19T09:58:22;97204.88;;;2.14;100.00
3096;BME280;1558;42.700;23.360;2022-12-19T10:00:54;97204.09;;;2.14;100.00
3096;BME280;1558;42.700;23.360;2022-12-19T10:03:29;97178.63;;;1.94;100.00
3096;BME280;1558;42.700;23.360;2022-12-19T10:06:13;97224.91;;;2.17;100.00
3096;BME280;1558;42.700;23.360;2022-12-19T10:09:09;97225.84;;;2.22;100.00
3096;BME280;1558;42.700;23.360;2022-12-19T10:12:07;97201.06;;;2.10;100.00
3096;BME280;1558;42.700;23.360;2022-12-19T10:15:02;97210.56;;;2.18;100.00
3096;BME280;1558;42.700;23.360;2022-12-19T10:17:43;97183.00;;;2.24;100.00
3096;BME280;1558;42.700;23.360;2022-12-19T10:20:20;97136.63;;;2.20;100.00
3096;BME280;1558;42.700;23.360;2022-12-19T10:23:02;97203.13;;;2.43;100.00
3096;BME280;1558;42.700;23.360;2022-12-19T10:25:58;97191.66;;;2.65;100.00
3096;BME280;1558;42.700;23.360;2022-12-19T10:28:38;97154.78;;;2.86;100.00
3096;BME280;1558;42.700;23.360;2022-12-19T10:31:16;97145.44;;;3.00;100.00
3096;BME280;1558;42.700;23.360;2022-12-19T10:33:52;97154.44;;;3.38;100.00
3096;BME280;1558;42.700;23.360;2022-12-19T10:36:23;97164.72;;;3.47;100.00
3096;BME280;1558;42.700;23.360;2022-12-19T10:39:17;97137.78;;;3.31;100.00
3096;BME280;1558;42.700;23.360;2022-12-19T10:41:54;97162.38;;;3.67;100.00
3096;BME280;1558;42.700;23.360;2022-12-19T10:44:25;97169.56;;;3.66;100.00
3096;BME280;1558;42.700;23.360;2022-12-19T10:46:57;97149.91;;;3.39;100.00
3096;BME280;1558;42.700;23.360;2022-12-19T10:49:26;97173.13;;;3.10;100.00
3096;BME280;1558;42.700;23.360;2022-12-19T10:51:59;97148.72;;;3.02;100.00
3096;BME280;1558;42.700;23.360;2022-12-19T10:54:37;97055.03;;;2.65;100.00
3096;BME280;1558;42.700;23.360;2022-12-19T10:57:23;97163.16;;;3.34;100.00
3096;BME280;1558;42.700;23.360;2022-12-19T10:59:56;97160.34;;;3.40;100.00
3096;BME280;1558;42.700;23.360;2022-12-19T11:02:42;97159.78;;;3.38;100.00
3096;BME280;1558;42.700;23.360;2022-12-19T11:05:29;97160.91;;;3.14;100.00
3096;BME280;1558;42.700;23.360;2022-12-19T11:08:00;97146.25;;;3.28;100.00
3096;BME280;1558;42.700;23.360;2022-12-19T11:10:37;97091.53;;;3.09;100.00
3096;BME280;1558;42.700;23.360;2022-12-19T11:13:28;97158.50;;;3.58;100.00
3096;BME280;1558;42.700;23.360;2022-12-19T11:16:34;97160.28;;;3.52;100.00
3096;BME280;1558;42.700;23.360;2022-12-19T11:19:29;97147.78;;;3.24;100.00
3096;BME280;1558;42.700;23.360;2022-12-19T11:22:20;97156.53;;;3.36;100.00
3096;BME280;1558;42.700;23.360;2022-12-19T11:25:15;97129.94;;;3.25;100.00
3096;BME280;1558;42.700;23.360;2022-12-19T11:28:10;97115.69;;;3.19;100.00
3096;BME280;1558;42.700;23.360;2022-12-19T11:31:07;97125.91;;;3.39;100.00
3096;BME280;1558;42.700;23.360;2022-12-19T11:34:02;97142.25;;;3.59;100.00
3096;BME280;1558;42.700;23.360;2022-12-19T11:36:36;97153.50;;;3.45;100.00
3096;BME280;1558;42.700;23.360;2022-12-19T11:39:12;97149.91;;;3.39;100.00
3096;BME280;1558;42.700;23.360;2022-12-19T11:41:46;97125.28;;;3.32;100.00
3096;BME280;1558;42.700;23.360;2022-12-19T11:44:24;97139.97;;;3.34;100.00
3096;BME280;1558;42.700;23.360;2022-12-19T11:47:00;97094.19;;;3.09;100.00
3096;BME280;1558;42.700;23.360;2022-12-19T11:49:33;97113.38;;;3.23;100.00
3096;BME280;1558;42.700;23.360;2022-12-19T11:52:09;97148.22;;;3.50;100.00
3096;BME280;1558;42.700;23.360;2022-12-19T11:55:06;97143.13;;;3.48;100.00
3096;BME280;1558;42.700;23.360;2022-12-19T11:57:38;97141.19;;;3.43;100.00
3096;BME280;1558;42.700;23.360;2022-12-19T12:00:11;97115.41;;;3.32;100.00
3096;BME280;1558;42.700;23.360;2022-12-19T12:02:57;97123.41;;;3.32;100.00
3096;BME280;1558;42.700;23.360;2022-12-19T12:05:38;97119.22;;;3.36;100.00
3096;BME280;1558;42.700;23.360;2022-12-19T12:08:29;97125.00;;;3.33;100.00
3096;BME280;1558;42.700;23.360;2022-12-19T12:11:25;97153.09;;;3.53;100.00
3096;BME280;1558;42.700;23.360;2022-12-19T12:14:19;97146.72;;;3.54;100.00
3096;BME280;1558;42.700;23.360;2022-12-19T12:17:17;97148.81;;;3.52;100.00
3096;BME280;1558;42.700;23.360;2022-12-19T12:20:23;97128.34;;;3.40;100.00
3096;BME280;1558;42.700;23.360;2022-12-19T12:23:24;97144.13;;;3.59;100.00
3096;BME280;1558;42.700;23.360;2022-12-19T12:26:17;97142.91;;;3.66;100.00
3096;BME280;1558;42.700;23.360;2022-12-19T12:29:16;97149.13;;;3.72;100.00
3096;BME280;1558;42.700;23.360;2022-12-19T12:32:15;97147.84;;;3.58;100.00
3096;BME280;1558;42.700;23.360;2022-12-19T12:35:18;97094.16;;;3.21;100.00
3096;BME280;1558;42.700;23.360;2022-12-19T12:38:26;97141.44;;;3.42;100.00
3096;BME280;1558;42.700;23.360;2022-12-19T12:41:17;97161.53;;;3.61;100.00
3096;BME280;1558;42.700;23.360;2022-12-19T12:43:59;97161.00;;;3.64;100.00
3096;BME280;1558;42.700;23.360;2022-12-19T12:46:36;97140.19;;;3.61;100.00
3096;BME280;1558;42.700;23.360;2022-12-19T12:49:21;97126.19;;;3.54;100.00
3096;BME280;1558;42.700;23.360;2022-12-19T12:51:52;97098.34;;;3.33;100.00
3096;BME280;1558;42.700;23.360;2022-12-19T12:54:20;97157.53;;;3.64;100.00
3096;BME280;1558;42.700;23.360;2022-12-19T12:56:54;97139.09;;;3.62;100.00
3096;BME280;1558;42.700;23.360;2022-12-19T12:59:24;97142.84;;;3.61;100.00
3096;BME280;1558;42.700;23.360;2022-12-19T13:01:55;97128.59;;;3.56;100.00
3096;BME280;1558;42.700;23.360;2022-12-19T13:04:29;97097.38;;;3.23;100.00
3096;BME280;1558;42.700;23.360;2022-12-19T13:07:27;97143.06;;;3.60;100.00
3096;BME280;1558;42.700;23.360;2022-12-19T13:10:20;97138.72;;;3.54;100.00
3096;BME280;1558;42.700;23.360;2022-12-19T13:12:56;97157.63;;;3.69;100.00
3096;BME280;1558;42.700;23.360;2022-12-19T13:15:39;97104.97;;;3.31;100.00
3096;BME280;1558;42.700;23.360;2022-12-19T13:20:53;97145.34;;;3.68;100.00
3096;BME280;1558;42.700;23.360;2022-12-19T13:23:33;97153.19;;;3.58;100.00
3096;BME280;1558;42.700;23.360;2022-12-19T13:26:19;97146.84;;;3.47;100.00
3096;BME280;1558;42.700;23.360;2022-12-19T13:28:47;97154.53;;;3.43;100.00
3096;BME280;1558;42.700;23.360;2022-12-19T13:31:19;97170.38;;;3.50;100.00
3096;BME280;1558;42.700;23.360;2022-12-19T13:34:17;97171.19;;;3.51;100.00
3096;BME280;1558;42.700;23.360;2022-12-19T13:36:53;97171.66;;;3.48;100.00
3096;BME280;1558;42.700;23.360;2022-12-19T13:40:05;97173.84;;;3.51;100.00
3096;BME280;1558;42.700;23.360;2022-12-19T13:42:54;97183.53;;;3.40;100.00
3096;BME280;1558;42.700;23.360;2022-12-19T13:45:47;97180.38;;;3.43;100.00
3096;BME280;1558;42.700;23.360;2022-12-19T13:48:25;97158.81;;;3.28;100.00
3096;BME280;1558;42.700;23.360;2022-12-19T13:50:55;97175.78;;;3.38;100.00